Time;durP1;ratioP1;P1;durP2;ratioP2;P2;SDS_P1;SDS_P2;PMS_P1;PMS_P2;Temp;Humidity;BMP_temperature;BMP_pressure;BME280_temperature;BME280_humidity;BME280_pressure;Samples;Min_cycle;Max_cycle;Signal;HPM_P1;HPM_P2
2024/01/14 00:00:47;;;;;;;26.58;13.02;;;;;;;;;;6298472;28;20133;-77
2024/01/14 00:03:50;;;;;;;18.88;16.85;;;;;;;;;;6309663;28;20543;-77
2024/01/14 00:06:53;;;;;;;15.38;11.02;;;;;;;;;;6317191;28;20055;-76
2024/01/14 00:09:56;;;;;;;27.45;11.05;;;;;;;;;;6337679;28;20024;-77
2024/01/14 00:12:59;;;;;;;21.42;11.45;;;;;;;;;;6330916;28;20044;-77
2024/01/14 00:16:04;;;;;;;12.85;9.70;;;;;;;;;;6328344;28;20098;-76
2024/01/14 00:19:09;;;;;;;19.13;11.52;;;;;;;;;;6309307;28;20537;-76
2024/01/14 00:22:12;;;;;;;18.55;9.82;;;;;;;;;;6292157;28;20143;-75
2024/01/14 00:25:19;;;;;;;19.27;10.38;;;;;;;;;;6306510;28;20035;-76
2024/01/14 00:28:22;;;;;;;20.80;10.23;;;;;;;;;;6311727;28;20046;-75
2024/01/14 00:31:24;;;;;;;13.55;10.35;;;;;;;;;;6305156;28;20048;-76
2024/01/14 00:34:28;;;;;;;17.90;9.75;;;;;;;;;;6318919;28;20044;-76
2024/01/14 00:37:31;;;;;;;24.98;12.00;;;;;;;;;;6293970;28;20052;-76
2024/01/14 00:40:34;;;;;;;20.88;12.63;;;;;;;;;;6333140;28;20100;-76
2024/01/14 00:43:37;;;;;;;18.30;9.70;;;;;;;;;;6343608;28;20044;-76
2024/01/14 00:46:39;;;;;;;24.42;11.30;;;;;;;;;;6306758;28;20052;-76
2024/01/14 00:49:41;;;;;;;18.15;12.73;;;;;;;;;;6325985;28;20044;-77
2024/01/14 00:52:44;;;;;;;21.10;13.45;;;;;;;;;;6306658;28;20048;-78
2024/01/14 00:55:47;;;;;;;17.58;8.20;;;;;;;;;;6308592;28;20086;-77
2024/01/14 00:58:49;;;;;;;16.73;10.20;;;;;;;;;;6303250;28;20086;-78
2024/01/14 01:01:51;;;;;;;12.50;10.07;;;;;;;;;;6298122;28;20120;-78
2024/01/14 01:04:54;;;;;;;13.13;7.47;;;;;;;;;;6305557;28;20054;-78
2024/01/14 01:07:56;;;;;;;24.23;11.82;;;;;;;;;;6316152;28;20454;-78
2024/01/14 01:10:59;;;;;;;17.42;11.48;;;;;;;;;;6335899;28;20050;-77
2024/01/14 01:14:03;;;;;;;19.83;10.65;;;;;;;;;;6340478;28;20043;-78
2024/01/14 01:17:06;;;;;;;17.67;11.60;;;;;;;;;;6305935;28;20053;-77
2024/01/14 01:20:08;;;;;;;9.23;7.03;;;;;;;;;;6320319;28;20032;-78
2024/01/14 01:23:11;;;;;;;12.13;10.85;;;;;;;;;;6317492;28;20075;-78
2024/01/14 01:26:13;;;;;;;10.98;6.30;;;;;;;;;;6306773;28;20067;-77
2024/01/14 01:29:15;;;;;;;16.10;10.48;;;;;;;;;;6311247;28;20351;-77
2024/01/14 01:32:17;;;;;;;8.52;7.50;;;;;;;;;;6289900;28;20036;-77
2024/01/14 01:35:20;;;;;;;17.00;9.45;;;;;;;;;;6316771;28;20051;-78
2024/01/14 01:38:23;;;;;;;19.35;12.55;;;;;;;;;;6291615;28;20048;-78
2024/01/14 01:41:27;;;;;;;14.88;12.25;;;;;;;;;;6324771;28;20070;-78
2024/01/14 01:44:29;;;;;;;15.45;9.52;;;;;;;;;;6312528;28;20048;-77
2024/01/14 01:47:32;;;;;;;16.27;6.93;;;;;;;;;;6309412;28;20046;-77
2024/01/14 01:50:35;;;;;;;9.40;5.50;;;;;;;;;;6308220;28;20145;-77
2024/01/14 01:53:38;;;;;;;17.83;11.20;;;;;;;;;;6300539;28;20048;-77
2024/01/14 01:56:42;;;;;;;14.73;7.90;;;;;;;;;;6292875;28;20059;-77
2024/01/14 01:59:45;;;;;;;18.88;13.00;;;;;;;;;;6292107;28;20043;-77
2024/01/14 02:02:48;;;;;;;13.25;10.73;;;;;;;;;;6283573;28;20611;-76
2024/01/14 02:05:52;;;;;;;19.90;12.80;;;;;;;;;;6306821;28;20085;-76
2024/01/14 02:08:55;;;;;;;9.80;6.72;;;;;;;;;;6303945;28;20633;-76
2024/01/14 02:11:58;;;;;;;26.73;11.27;;;;;;;;;;6263413;28;20527;-76
2024/01/14 02:15:02;;;;;;;11.63;8.38;;;;;;;;;;6305774;28;20511;-75
2024/01/14 02:18:06;;;;;;;9.82;7.10;;;;;;;;;;6289315;28;20101;-76
2024/01/14 02:21:10;;;;;;;7.65;6.70;;;;;;;;;;6294103;28;20335;-76
2024/01/14 02:24:29;;;;;;;10.82;7.97;;;;;;;;;;6273987;28;20059;-76
2024/01/14 02:27:31;;;;;;;11.07;7.63;;;;;;;;;;6281064;28;20085;-76
2024/01/14 02:30:37;;;;;;;16.45;10.93;;;;;;;;;;6313041;28;20051;-76
2024/01/14 02:33:39;;;;;;;13.25;10.68;;;;;;;;;;6326385;28;20548;-77
2024/01/14 02:36:41;;;;;;;13.40;7.15;;;;;;;;;;6279344;28;20065;-76
2024/01/14 02:39:43;;;;;;;15.65;12.25;;;;;;;;;;6290952;28;20033;-76
2024/01/14 02:42:46;;;;;;;23.10;8.98;;;;;;;;;;6276136;28;20537;-77
2024/01/14 02:45:49;;;;;;;14.48;8.80;;;;;;;;;;6325189;28;20597;-77
2024/01/14 02:48:52;;;;;;;14.50;12.23;;;;;;;;;;6312799;28;20131;-77
2024/01/14 02:51:55;;;;;;;11.68;7.50;;;;;;;;;;6292652;28;20043;-76
2024/01/14 02:54:57;;;;;;;9.77;8.98;;;;;;;;;;6326969;28;20044;-77
2024/01/14 02:57:59;;;;;;;8.07;6.97;;;;;;;;;;6290713;28;20167;-77
2024/01/14 03:01:01;;;;;;;11.65;7.53;;;;;;;;;;6317706;28;20112;-77
2024/01/14 03:04:04;;;;;;;13.05;11.75;;;;;;;;;;6320351;28;20036;-76
2024/01/14 03:07:06;;;;;;;15.98;8.60;;;;;;;;;;6307741;28;20040;-77
2024/01/14 03:10:09;;;;;;;23.55;9.63;;;;;;;;;;6338277;27;20064;-76
2024/01/14 03:13:16;;;;;;;9.88;7.72;;;;;;;;;;6347942;28;20050;-77
2024/01/14 03:16:21;;;;;;;16.25;7.07;;;;;;;;;;6328183;28;20040;-76
2024/01/14 03:19:23;;;;;;;11.15;10.25;;;;;;;;;;6305158;28;20039;-76
2024/01/14 03:22:26;;;;;;;8.57;6.65;;;;;;;;;;6294209;28;20051;-77
2024/01/14 03:25:28;;;;;;;10.10;9.30;;;;;;;;;;6304126;28;20071;-76
2024/01/14 03:28:30;;;;;;;9.50;5.72;;;;;;;;;;6308092;28;20048;-76
2024/01/14 03:31:33;;;;;;;13.40;11.45;;;;;;;;;;6301910;28;20051;-76
2024/01/14 03:34:36;;;;;;;14.25;8.38;;;;;;;;;;6305514;28;20092;-76
2024/01/14 03:37:39;;;;;;;10.27;6.72;;;;;;;;;;6319192;28;20912;-77
2024/01/14 03:40:41;;;;;;;10.88;8.40;;;;;;;;;;6298535;28;20054;-76
2024/01/14 03:43:44;;;;;;;11.18;8.43;;;;;;;;;;6311108;28;20059;-77
2024/01/14 03:46:46;;;;;;;15.68;13.68;;;;;;;;;;6279681;28;20075;-76
2024/01/14 03:49:49;;;;;;;6.50;5.85;;;;;;;;;;6318458;28;21020;-76
2024/01/14 03:52:51;;;;;;;16.08;9.93;;;;;;;;;;6316808;28;20032;-76
2024/01/14 03:55:54;;;;;;;12.80;7.55;;;;;;;;;;6305750;28;20039;-76
2024/01/14 03:58:56;;;;;;;13.43;12.07;;;;;;;;;;6310473;28;20601;-76
2024/01/14 04:01:58;;;;;;;6.78;6.03;;;;;;;;;;6333123;28;20028;-76
2024/01/14 04:05:00;;;;;;;15.77;8.50;;;;;;;;;;6283594;28;20064;-76
2024/01/14 04:08:03;;;;;;;20.83;13.20;;;;;;;;;;6338139;28;20903;-76
2024/01/14 04:11:05;;;;;;;10.73;9.25;;;;;;;;;;6292562;28;20046;-76
2024/01/14 04:14:08;;;;;;;21.80;9.18;;;;;;;;;;6310571;28;20127;-76
2024/01/14 04:17:12;;;;;;;11.23;10.13;;;;;;;;;;6329545;28;20111;-75
2024/01/14 04:20:14;;;;;;;12.45;7.32;;;;;;;;;;6301208;28;20112;-76
2024/01/14 04:23:16;;;;;;;11.60;6.95;;;;;;;;;;6314360;28;20059;-77
2024/01/14 04:26:22;;;;;;;8.23;6.63;;;;;;;;;;6284616;28;20044;-76
2024/01/14 04:29:24;;;;;;;9.82;7.90;;;;;;;;;;6316056;28;20131;-77
2024/01/14 04:32:26;;;;;;;9.63;6.65;;;;;;;;;;6300681;28;20057;-76
2024/01/14 04:35:29;;;;;;;9.32;5.40;;;;;;;;;;6296924;28;20104;-77
2024/01/14 04:38:31;;;;;;;12.82;9.80;;;;;;;;;;6316131;28;20100;-76
2024/01/14 04:41:34;;;;;;;21.75;10.77;;;;;;;;;;6324484;28;20052;-77
2024/01/14 04:44:36;;;;;;;16.85;6.95;;;;;;;;;;6322386;28;20043;-76
2024/01/14 04:47:39;;;;;;;12.52;8.13;;;;;;;;;;6321484;28;20048;-77
2024/01/14 04:50:42;;;;;;;25.55;17.52;;;;;;;;;;6325285;28;20055;-76
2024/01/14 04:53:46;;;;;;;24.10;13.27;;;;;;;;;;6323804;28;20055;-76
2024/01/14 04:56:48;;;;;;;13.45;10.85;;;;;;;;;;6301905;28;20044;-76
2024/01/14 04:59:50;;;;;;;13.30;10.63;;;;;;;;;;6347829;27;20036;-77
2024/01/14 05:02:53;;;;;;;13.50;10.00;;;;;;;;;;6306927;28;20048;-77
2024/01/14 05:05:56;;;;;;;16.42;10.50;;;;;;;;;;6323571;28;20039;-78
2024/01/14 05:08:58;;;;;;;9.00;8.13;;;;;;;;;;6334393;28;20049;-77
2024/01/14 05:12:00;;;;;;;20.88;14.68;;;;;;;;;;6304375;28;20048;-77
2024/01/14 05:15:03;;;;;;;19.23;13.93;;;;;;;;;;6333897;28;20124;-76
2024/01/14 05:18:06;;;;;;;12.82;11.23;;;;;;;;;;6321443;28;20052;-76
2024/01/14 05:21:14;;;;;;;30.95;20.13;;;;;;;;;;6293938;28;20112;-77
2024/01/14 05:24:18;;;;;;;18.17;13.90;;;;;;;;;;6334454;28;20069;-76
2024/01/14 05:27:27;;;;;;;29.73;13.02;;;;;;;;;;6315156;28;20044;-76
2024/01/14 05:30:30;;;;;;;14.52;9.50;;;;;;;;;;6292631;28;20060;-76
2024/01/14 05:33:34;;;;;;;8.55;6.95;;;;;;;;;;6316104;28;20046;-76
2024/01/14 05:36:37;;;;;;;10.70;8.80;;;;;;;;;;6317038;28;20048;-75
2024/01/14 05:39:39;;;;;;;14.20;11.75;;;;;;;;;;6319259;28;20043;-77
2024/01/14 05:42:42;;;;;;;24.70;14.35;;;;;;;;;;6308730;28;20047;-77
2024/01/14 05:45:45;;;;;;;11.88;9.70;;;;;;;;;;6294302;28;20063;-77
2024/01/14 05:48:48;;;;;;;8.95;6.00;;;;;;;;;;6284883;28;20561;-77
2024/01/14 05:51:50;;;;;;;16.77;7.78;;;;;;;;;;6308038;28;20039;-78
2024/01/14 05:54:52;;;;;;;18.13;16.35;;;;;;;;;;6294324;28;20138;-78
2024/01/14 05:57:55;;;;;;;17.77;9.68;;;;;;;;;;6331768;28;20051;-77
2024/01/14 06:01:03;;;;;;;6.80;6.18;;;;;;;;;;6320973;28;20036;-77
2024/01/14 06:04:09;;;;;;;6.07;5.47;;;;;;;;;;6321047;28;20113;-77
2024/01/14 06:07:11;;;;;;;9.07;7.95;;;;;;;;;;6333074;28;20048;-78
2024/01/14 06:10:15;;;;;;;9.32;8.55;;;;;;;;;;6326625;28;20049;-78
2024/01/14 06:13:17;;;;;;;14.32;8.05;;;;;;;;;;6304966;28;20071;-77
2024/01/14 06:16:24;;;;;;;12.23;10.45;;;;;;;;;;6294870;28;20063;-77
2024/01/14 06:19:27;;;;;;;17.23;12.82;;;;;;;;;;6272979;28;20043;-74
2024/01/14 06:22:29;;;;;;;23.42;11.60;;;;;;;;;;6336035;28;20127;-75
2024/01/14 06:25:31;;;;;;;13.32;11.90;;;;;;;;;;6294640;28;20276;-74
2024/01/14 06:28:35;;;;;;;9.70;8.85;;;;;;;;;;6325962;28;20591;-74
2024/01/14 06:31:37;;;;;;;14.80;12.38;;;;;;;;;;6321221;28;20040;-75
2024/01/14 06:34:40;;;;;;;6.43;5.47;;;;;;;;;;6320361;28;20052;-74
2024/01/14 06:37:43;;;;;;;9.68;6.68;;;;;;;;;;6323174;28;20072;-74
2024/01/14 06:40:45;;;;;;;18.90;10.52;;;;;;;;;;6318531;28;20044;-73
2024/01/14 06:44:03;;;;;;;10.68;7.43;;;;;;;;;;6296905;28;20075;-74
2024/01/14 06:47:06;;;;;;;16.00;11.15;;;;;;;;;;6325205;28;20046;-74
2024/01/14 06:50:10;;;;;;;17.13;8.70;;;;;;;;;;6276767;28;20131;-73
2024/01/14 06:53:18;;;;;;;21.23;12.73;;;;;;;;;;6294133;28;20043;-76
2024/01/14 06:56:20;;;;;;;16.33;10.48;;;;;;;;;;6320762;28;20036;-75
2024/01/14 06:59:24;;;;;;;9.75;8.43;;;;;;;;;;6294235;28;20060;-73
2024/01/14 07:02:26;;;;;;;13.60;7.07;;;;;;;;;;6321241;28;20039;-73
2024/01/14 07:05:28;;;;;;;19.90;12.85;;;;;;;;;;6273701;28;20048;-73
2024/01/14 07:08:31;;;;;;;16.92;13.63;;;;;;;;;;6319213;28;20037;-74
2024/01/14 07:11:33;;;;;;;20.02;9.70;;;;;;;;;;6283432;28;20047;-73
2024/01/14 07:14:36;;;;;;;22.13;12.75;;;;;;;;;;6290097;28;20702;-73
2024/01/14 07:17:39;;;;;;;20.25;10.45;;;;;;;;;;6300226;28;20079;-75
2024/01/14 07:20:58;;;;;;;20.70;15.30;;;;;;;;;;6299845;28;20082;-74
2024/01/14 07:24:00;;;;;;;19.17;10.18;;;;;;;;;;6287467;28;20051;-74
2024/01/14 07:27:04;;;;;;;15.95;13.23;;;;;;;;;;6313819;28;20035;-76
2024/01/14 07:30:08;;;;;;;16.38;10.80;;;;;;;;;;6321350;28;20043;-75
2024/01/14 07:33:11;;;;;;;33.38;23.63;;;;;;;;;;6316220;28;20059;-75
2024/01/14 07:36:13;;;;;;;37.75;21.27;;;;;;;;;;6332873;28;20044;-76
2024/01/14 07:39:16;;;;;;;13.07;10.88;;;;;;;;;;6325769;28;20103;-75
2024/01/14 07:42:19;;;;;;;31.83;23.38;;;;;;;;;;6310282;28;20078;-76
2024/01/14 07:45:21;;;;;;;34.75;14.23;;;;;;;;;;6337766;28;20039;-76
2024/01/14 07:48:26;;;;;;;10.10;7.95;;;;;;;;;;6321927;28;20039;-76
2024/01/14 07:51:29;;;;;;;57.38;27.60;;;;;;;;;;6280909;28;20492;-73
2024/01/14 07:54:31;;;;;;;29.98;17.80;;;;;;;;;;6302172;28;20135;-76
2024/01/14 07:57:34;;;;;;;24.60;12.70;;;;;;;;;;6315399;28;20054;-76
2024/01/14 08:00:38;;;;;;;21.15;15.73;;;;;;;;;;6299252;28;20052;-75
2024/01/14 08:04:01;;;;;;;17.83;10.85;;;;;;;;;;6316566;28;20319;-77
2024/01/14 08:07:06;;;;;;;24.13;19.05;;;;;;;;;;6291870;28;20060;-75
2024/01/14 08:10:10;;;;;;;22.52;12.57;;;;;;;;;;6300201;28;20131;-75
2024/01/14 08:13:12;;;;;;;20.90;15.68;;;;;;;;;;6305456;28;20056;-74
2024/01/14 08:16:17;;;;;;;27.33;17.13;;;;;;;;;;6298552;28;20048;-75
2024/01/14 08:19:25;;;;;;;21.58;15.10;;;;;;;;;;6288878;28;20056;-77
2024/01/14 08:22:39;;;;;;;19.77;10.73;;;;;;;;;;6305143;28;20542;-78
2024/01/14 08:25:42;;;;;;;19.63;17.48;;;;;;;;;;6322668;28;20024;-78
2024/01/14 08:28:44;;;;;;;23.23;16.73;;;;;;;;;;6344033;28;20051;-79
2024/01/14 08:31:46;;;;;;;40.03;26.15;;;;;;;;;;6279433;28;20047;-77
2024/01/14 08:34:49;;;;;;;27.90;21.20;;;;;;;;;;6297047;28;20095;-76
2024/01/14 08:37:51;;;;;;;42.63;31.00;;;;;;;;;;6287128;28;20096;-77
2024/01/14 08:40:53;;;;;;;30.83;18.98;;;;;;;;;;6273435;28;20044;-77
2024/01/14 08:43:56;;;;;;;23.17;15.27;;;;;;;;;;6300481;28;20044;-78
2024/01/14 08:46:59;;;;;;;33.00;16.98;;;;;;;;;;6317112;28;20052;-75
2024/01/14 08:50:01;;;;;;;31.60;17.42;;;;;;;;;;6288129;28;20040;-76
2024/01/14 08:53:03;;;;;;;34.85;18.35;;;;;;;;;;6284421;28;20952;-77
2024/01/14 08:56:06;;;;;;;23.83;15.80;;;;;;;;;;6298834;28;20052;-77
2024/01/14 08:59:08;;;;;;;27.55;15.43;;;;;;;;;;6300866;28;20032;-78
2024/01/14 09:02:10;;;;;;;21.42;12.80;;;;;;;;;;6283823;28;20043;-79
2024/01/14 09:05:13;;;;;;;29.23;16.98;;;;;;;;;;6310938;28;20047;-78
2024/01/14 09:08:16;;;;;;;24.60;18.08;;;;;;;;;;6317884;28;20311;-77
2024/01/14 09:11:18;;;;;;;26.30;16.73;;;;;;;;;;6314601;28;20039;-77
2024/01/14 09:14:20;;;;;;;26.33;20.25;;;;;;;;;;6339672;28;20047;-77
2024/01/14 09:17:23;;;;;;;20.60;11.13;;;;;;;;;;6310345;28;20376;-76
2024/01/14 09:20:26;;;;;;;58.05;33.05;;;;;;;;;;6289741;28;20041;-75
2024/01/14 09:23:29;;;;;;;25.05;17.40;;;;;;;;;;6296714;28;20047;-77
2024/01/14 09:26:31;;;;;;;27.77;13.88;;;;;;;;;;6264419;28;20055;-77
2024/01/14 09:29:33;;;;;;;24.80;12.70;;;;;;;;;;6287634;28;20052;-74
2024/01/14 09:32:35;;;;;;;28.35;16.27;;;;;;;;;;6298181;28;20044;-76
2024/01/14 09:35:38;;;;;;;26.90;13.10;;;;;;;;;;6289065;28;20040;-78
2024/01/14 09:38:40;;;;;;;27.15;14.13;;;;;;;;;;6284113;28;20448;-75
2024/01/14 09:42:01;;;;;;;27.13;16.25;;;;;;;;;;6301248;28;20051;-76
2024/01/14 09:45:05;;;;;;;14.32;9.38;;;;;;;;;;6249299;28;21260;-75
2024/01/14 09:48:08;;;;;;;26.15;16.58;;;;;;;;;;6259892;28;20104;-78
2024/01/14 09:51:11;;;;;;;28.10;18.58;;;;;;;;;;6285013;28;20048;-78
2024/01/14 09:54:13;;;;;;;18.08;11.43;;;;;;;;;;6279826;28;20054;-76
2024/01/14 09:57:22;;;;;;;34.95;14.55;;;;;;;;;;6301313;28;20449;-77
2024/01/14 10:00:25;;;;;;;19.50;10.27;;;;;;;;;;6300465;28;20485;-78
2024/01/14 10:03:27;;;;;;;25.77;13.52;;;;;;;;;;6271748;28;20050;-77
2024/01/14 10:06:30;;;;;;;26.30;17.25;;;;;;;;;;6307258;28;20041;-78
2024/01/14 10:09:32;;;;;;;24.05;14.10;;;;;;;;;;6323146;28;20040;-76
2024/01/14 10:12:35;;;;;;;21.77;12.55;;;;;;;;;;6271600;28;20048;-75
2024/01/14 10:15:37;;;;;;;23.10;14.40;;;;;;;;;;6327363;28;20048;-75
2024/01/14 10:18:55;;;;;;;9.60;6.70;;;;;;;;;;6294238;28;20117;-75
2024/01/14 10:21:57;;;;;;;25.88;17.38;;;;;;;;;;6293043;28;20048;-75
2024/01/14 10:25:19;;;;;;;17.67;11.38;;;;;;;;;;6272815;28;20044;-75
2024/01/14 10:28:21;;;;;;;21.20;12.35;;;;;;;;;;6287257;28;20090;-75
2024/01/14 10:31:23;;;;;;;28.55;12.38;;;;;;;;;;6276692;28;20178;-75
2024/01/14 10:34:26;;;;;;;21.60;14.30;;;;;;;;;;6300687;28;20032;-75
2024/01/14 10:37:32;;;;;;;28.42;18.50;;;;;;;;;;6288688;28;20047;-76
2024/01/14 10:40:34;;;;;;;22.70;14.45;;;;;;;;;;6273307;28;20109;-75
2024/01/14 10:43:36;;;;;;;26.20;16.77;;;;;;;;;;6327031;28;20055;-75
2024/01/14 10:46:41;;;;;;;11.52;6.55;;;;;;;;;;6273065;28;20058;-76
2024/01/14 10:49:44;;;;;;;37.38;18.90;;;;;;;;;;6277346;28;20040;-76
2024/01/14 10:52:52;;;;;;;73.50;39.78;;;;;;;;;;6310233;28;20661;-76
2024/01/14 10:56:01;;;;;;;36.22;18.38;;;;;;;;;;6327666;28;20097;-77
2024/01/14 10:59:07;;;;;;;31.15;15.80;;;;;;;;;;6299023;28;20055;-77
2024/01/14 11:02:18;;;;;;;26.75;16.13;;;;;;;;;;6285733;28;20080;-75
2024/01/14 11:05:20;;;;;;;37.22;22.10;;;;;;;;;;6313928;27;20114;-76
2024/01/14 11:08:23;;;;;;;29.15;17.40;;;;;;;;;;6294372;28;20053;-75
2024/01/14 11:11:36;;;;;;;26.02;14.35;;;;;;;;;;6316253;28;20044;-75
2024/01/14 11:14:48;;;;;;;27.52;15.73;;;;;;;;;;6312161;28;20037;-77
2024/01/14 11:17:56;;;;;;;;;;;;;;;;;;6304409;28;20078;-76
2024/01/14 11:21:39;;;;;;;34.42;22.05;;;;;;;;;;6317596;28;19924;-76
2024/01/14 11:25:03;;;;;;;32.38;16.95;;;;;;;;;;6211755;28;20059;-76
2024/01/14 11:28:07;;;;;;;31.30;15.95;;;;;;;;;;6282139;28;20051;-76
2024/01/14 11:31:10;;;;;;;30.10;16.25;;;;;;;;;;6285086;28;20076;-75
2024/01/14 11:34:48;;;;;;;30.10;18.88;;;;;;;;;;6300184;28;20043;-74
2024/01/14 11:37:51;;;;;;;16.98;10.68;;;;;;;;;;6310304;28;20040;-75
2024/01/14 11:40:54;;;;;;;59.67;28.05;;;;;;;;;;6292653;28;20051;-74
2024/01/14 11:44:04;;;;;;;55.47;30.42;;;;;;;;;;6282210;28;20574;-74
2024/01/14 11:47:07;;;;;;;30.13;17.15;;;;;;;;;;6279804;28;20051;-75
2024/01/14 11:50:10;;;;;;;40.05;23.58;;;;;;;;;;6299093;28;20079;-75
2024/01/14 11:53:12;;;;;;;34.45;19.23;;;;;;;;;;6291101;28;20036;-76
2024/01/14 11:56:31;;;;;;;43.47;20.35;;;;;;;;;;6317501;28;20075;-75
2024/01/14 11:59:34;;;;;;;37.90;20.23;;;;;;;;;;6315952;28;20186;-75
2024/01/14 12:02:43;;;;;;;32.05;16.67;;;;;;;;;;6310359;28;20040;-73
2024/01/14 12:05:46;;;;;;;43.60;23.75;;;;;;;;;;6283409;28;20743;-74
2024/01/14 12:09:00;;;;;;;35.65;20.33;;;;;;;;;;6317127;28;20130;-77
2024/01/14 12:12:06;;;;;;;30.48;15.35;;;;;;;;;;6293936;28;20131;-75
2024/01/14 12:15:09;;;;;;;34.72;19.48;;;;;;;;;;6294189;28;20096;-77
2024/01/14 12:18:13;;;;;;;22.75;13.65;;;;;;;;;;6287704;28;20040;-78
2024/01/14 12:21:17;;;;;;;36.53;20.90;;;;;;;;;;6312101;28;20040;-77
2024/01/14 12:24:33;;;;;;;31.40;19.88;;;;;;;;;;6339657;28;20543;-77
2024/01/14 12:27:37;;;;;;;36.97;20.85;;;;;;;;;;6278174;28;20076;-77
2024/01/14 12:30:39;;;;;;;34.25;17.38;;;;;;;;;;6281245;28;20059;-77
2024/01/14 12:33:48;;;;;;;26.13;17.17;;;;;;;;;;6310889;28;20051;-77
2024/01/14 12:36:50;;;;;;;27.33;15.20;;;;;;;;;;6322283;28;20036;-77
2024/01/14 12:39:55;;;;;;;33.35;19.17;;;;;;;;;;6316344;28;20051;-76
2024/01/14 12:42:59;;;;;;;31.20;16.83;;;;;;;;;;6310369;28;20049;-77
2024/01/14 12:46:02;;;;;;;48.85;28.55;;;;;;;;;;6302168;28;20071;-77
2024/01/14 12:49:05;;;;;;;47.05;25.13;;;;;;;;;;6307868;28;20044;-76
2024/01/14 12:52:16;;;;;;;35.10;21.98;;;;;;;;;;6340362;28;20099;-77
2024/01/14 12:55:22;;;;;;;30.17;17.02;;;;;;;;;;6334427;28;20048;-76
2024/01/14 12:58:25;;;;;;;39.88;21.40;;;;;;;;;;6313742;28;20307;-77
2024/01/14 13:01:27;;;;;;;37.67;20.25;;;;;;;;;;6318543;28;20600;-77
2024/01/14 13:04:29;;;;;;;34.25;18.65;;;;;;;;;;6295024;28;20049;-76
2024/01/14 13:07:33;;;;;;;40.08;19.90;;;;;;;;;;6327389;28;21079;-75
2024/01/14 13:10:36;;;;;;;41.45;19.70;;;;;;;;;;6297859;28;20147;-76
2024/01/14 13:13:41;;;;;;;35.30;19.80;;;;;;;;;;6326131;28;20117;-75
2024/01/14 13:16:45;;;;;;;36.80;20.48;;;;;;;;;;6310491;28;20036;-77
2024/01/14 13:19:56;;;;;;;31.05;17.08;;;;;;;;;;6311212;28;20048;-77
2024/01/14 13:23:00;;;;;;;34.70;18.67;;;;;;;;;;6309536;28;20028;-77
2024/01/14 13:26:04;;;;;;;36.83;18.83;;;;;;;;;;6348677;27;20058;-76
2024/01/14 13:29:07;;;;;;;36.15;21.08;;;;;;;;;;6319280;28;20047;-76
2024/01/14 13:32:09;;;;;;;39.40;20.15;;;;;;;;;;6318004;28;20036;-77
2024/01/14 13:35:12;;;;;;;39.25;23.33;;;;;;;;;;6313201;28;20317;-76
2024/01/14 13:38:15;;;;;;;42.60;22.05;;;;;;;;;;6313487;28;20096;-77
2024/01/14 13:41:17;;;;;;;46.42;26.45;;;;;;;;;;6321689;28;20580;-77
2024/01/14 13:44:20;;;;;;;47.92;24.50;;;;;;;;;;6331369;28;20428;-77
2024/01/14 13:47:22;;;;;;;39.72;21.73;;;;;;;;;;6298583;28;20232;-77
2024/01/14 13:50:29;;;;;;;35.72;21.77;;;;;;;;;;6319741;28;20156;-77
2024/01/14 13:53:32;;;;;;;38.60;20.10;;;;;;;;;;6305394;28;20130;-77
2024/01/14 13:56:35;;;;;;;34.22;18.98;;;;;;;;;;6332899;28;20074;-78
2024/01/14 13:59:37;;;;;;;34.13;18.90;;;;;;;;;;6329707;28;20047;-76
2024/01/14 14:02:40;;;;;;;36.78;20.48;;;;;;;;;;6285740;28;20041;-77
2024/01/14 14:05:48;;;;;;;31.67;20.17;;;;;;;;;;6258319;28;20048;-77
2024/01/14 14:08:54;;;;;;;32.10;18.00;;;;;;;;;;6285364;28;20647;-76
2024/01/14 14:11:57;;;;;;;33.10;19.85;;;;;;;;;;6288608;28;20047;-76
2024/01/14 14:15:00;;;;;;;39.45;21.35;;;;;;;;;;6293243;28;20047;-76
2024/01/14 14:18:03;;;;;;;40.40;23.85;;;;;;;;;;6292120;28;20051;-77
2024/01/14 14:21:18;;;;;;;43.78;25.67;;;;;;;;;;6297588;28;20189;-76
2024/01/14 14:24:21;;;;;;;52.88;30.25;;;;;;;;;;6308954;28;20104;-76
2024/01/14 14:27:24;;;;;;;63.15;37.30;;;;;;;;;;6292570;28;20050;-76
2024/01/14 14:30:26;;;;;;;49.58;30.48;;;;;;;;;;6314045;28;20051;-76
2024/01/14 14:33:31;;;;;;;40.13;20.80;;;;;;;;;;6282549;28;20055;-79
2024/01/14 14:36:33;;;;;;;41.17;21.33;;;;;;;;;;6286810;28;20055;-75
2024/01/14 14:39:36;;;;;;;41.05;19.42;;;;;;;;;;6295026;28;20149;-78
2024/01/14 14:42:39;;;;;;;33.58;19.00;;;;;;;;;;6318938;28;20044;-77
2024/01/14 14:45:42;;;;;;;41.47;21.38;;;;;;;;;;6312302;28;20059;-77
2024/01/14 14:48:44;;;;;;;52.83;23.13;;;;;;;;;;6324228;28;20071;-75
2024/01/14 14:51:47;;;;;;;46.88;19.77;;;;;;;;;;6327492;28;20244;-76
2024/01/14 14:54:49;;;;;;;40.13;22.05;;;;;;;;;;6312398;28;20098;-76
2024/01/14 14:57:51;;;;;;;43.58;22.58;;;;;;;;;;6304525;28;20044;-76
2024/01/14 15:00:54;;;;;;;41.90;22.20;;;;;;;;;;6336194;28;20036;-76
2024/01/14 15:03:58;;;;;;;39.55;22.52;;;;;;;;;;6290195;28;20090;-78
2024/01/14 15:07:01;;;;;;;40.17;19.55;;;;;;;;;;6335363;28;20040;-77
2024/01/14 15:10:03;;;;;;;37.42;20.67;;;;;;;;;;6273051;28;20721;-77
2024/01/14 15:13:06;;;;;;;37.92;20.67;;;;;;;;;;6304657;28;20052;-75
2024/01/14 15:16:11;;;;;;;34.38;20.52;;;;;;;;;;6310436;28;20043;-78
2024/01/14 15:19:15;;;;;;;37.22;19.40;;;;;;;;;;6274789;28;20130;-76
2024/01/14 15:22:17;;;;;;;30.02;17.48;;;;;;;;;;6290587;28;20032;-76
2024/01/14 15:25:22;;;;;;;34.00;15.82;;;;;;;;;;6283066;28;20044;-79
2024/01/14 15:28:27;;;;;;;50.55;25.60;;;;;;;;;;6322904;28;20380;-76
2024/01/14 15:31:30;;;;;;;41.33;21.13;;;;;;;;;;6272925;28;20060;-77
2024/01/14 15:34:34;;;;;;;36.20;19.98;;;;;;;;;;6303964;28;20055;-77
2024/01/14 15:37:37;;;;;;;46.50;27.30;;;;;;;;;;6313900;28;20319;-74
2024/01/14 15:40:39;;;;;;;27.60;21.10;;;;;;;;;;6253799;28;20555;-76
2024/01/14 15:43:42;;;;;;;35.47;17.75;;;;;;;;;;6284403;28;20072;-76
2024/01/14 15:46:46;;;;;;;39.03;20.85;;;;;;;;;;6307369;28;20123;-76
2024/01/14 15:49:48;;;;;;;30.33;16.60;;;;;;;;;;6309479;28;20048;-75
2024/01/14 15:52:51;;;;;;;39.60;17.52;;;;;;;;;;6290557;28;20188;-77
2024/01/14 15:55:53;;;;;;;33.35;18.83;;;;;;;;;;6261105;28;20044;-76
2024/01/14 15:58:56;;;;;;;39.55;19.10;;;;;;;;;;6293028;28;20055;-76
2024/01/14 16:01:59;;;;;;;47.50;25.70;;;;;;;;;;6296804;28;20044;-76
2024/01/14 16:05:02;;;;;;;46.55;24.23;;;;;;;;;;6294065;28;20693;-75
2024/01/14 16:08:05;;;;;;;38.17;20.80;;;;;;;;;;6312564;28;20048;-76
2024/01/14 16:11:08;;;;;;;38.30;19.33;;;;;;;;;;6279352;28;20052;-77
2024/01/14 16:14:11;;;;;;;36.67;20.98;;;;;;;;;;6288283;28;20061;-78
2024/01/14 16:17:13;;;;;;;35.63;18.95;;;;;;;;;;6305811;28;20052;-75
2024/01/14 16:20:15;;;;;;;41.88;19.90;;;;;;;;;;6268155;28;20064;-77
2024/01/14 16:23:17;;;;;;;35.15;20.30;;;;;;;;;;6308095;28;20037;-77
2024/01/14 16:26:22;;;;;;;42.10;20.95;;;;;;;;;;6285277;28;20045;-75
2024/01/14 16:29:24;;;;;;;47.45;23.77;;;;;;;;;;6304612;28;20175;-77
2024/01/14 16:32:27;;;;;;;60.35;31.02;;;;;;;;;;6308152;28;20608;-77
2024/01/14 16:35:31;;;;;;;55.88;27.70;;;;;;;;;;6310974;28;20044;-76
2024/01/14 16:38:49;;;;;;;52.85;27.95;;;;;;;;;;6288382;28;20044;-77
2024/01/14 16:41:52;;;;;;;56.35;32.90;;;;;;;;;;6272204;28;20044;-76
2024/01/14 16:44:56;;;;;;;61.05;33.90;;;;;;;;;;6313712;27;20056;-76
2024/01/14 16:47:59;;;;;;;58.55;28.20;;;;;;;;;;6291786;28;20054;-76
2024/01/14 16:51:03;;;;;;;52.83;29.08;;;;;;;;;;6313653;28;20036;-77
2024/01/14 16:54:13;;;;;;;47.80;25.55;;;;;;;;;;6315495;27;20043;-77
2024/01/14 16:57:16;;;;;;;43.30;21.25;;;;;;;;;;6299433;28;20044;-77
2024/01/14 17:00:22;;;;;;;45.33;26.00;;;;;;;;;;6282863;28;20591;-76
2024/01/14 17:03:26;;;;;;;38.00;22.10;;;;;;;;;;6262499;28;20155;-76
2024/01/14 17:06:30;;;;;;;33.03;23.60;;;;;;;;;;6289475;28;20036;-77
2024/01/14 17:09:33;;;;;;;35.00;19.55;;;;;;;;;;6274949;28;20059;-77
2024/01/14 17:12:35;;;;;;;37.22;20.10;;;;;;;;;;6262183;28;20036;-76
2024/01/14 17:15:38;;;;;;;33.97;21.48;;;;;;;;;;6282767;28;20505;-75
2024/01/14 17:18:40;;;;;;;36.70;23.30;;;;;;;;;;6274020;28;20044;-76
2024/01/14 17:21:43;;;;;;;40.92;20.38;;;;;;;;;;6273376;28;20105;-75
2024/01/14 17:24:45;;;;;;;34.45;15.60;;;;;;;;;;6281236;28;20036;-76
2024/01/14 17:27:47;;;;;;;38.58;19.17;;;;;;;;;;6267825;28;20048;-76
2024/01/14 17:30:50;;;;;;;32.75;22.52;;;;;;;;;;6285620;28;20637;-76
2024/01/14 17:33:54;;;;;;;45.15;25.63;;;;;;;;;;6266788;28;20128;-76
2024/01/14 17:36:56;;;;;;;40.00;26.70;;;;;;;;;;6272813;28;20523;-75
2024/01/14 17:40:00;;;;;;;42.90;22.38;;;;;;;;;;6270945;28;20048;-76
2024/01/14 17:43:02;;;;;;;32.17;19.65;;;;;;;;;;6285932;28;20051;-76
2024/01/14 17:46:06;;;;;;;45.45;26.60;;;;;;;;;;6296765;28;20051;-76
2024/01/14 17:49:11;;;;;;;55.33;32.58;;;;;;;;;;6301665;28;20454;-76
2024/01/14 17:52:13;;;;;;;69.53;37.40;;;;;;;;;;6266526;28;20102;-77
2024/01/14 17:55:16;;;;;;;66.63;30.25;;;;;;;;;;6255146;28;20076;-77